sensor_id;sensor_type;location;lat;lon;timestamp;P1;durP1;ratioP1;P2;durP2;ratioP2
50012;SDS011;35901;48.694;9.476;2023-06-19T00:02:00;6.93;;;6.33;;
50012;SDS011;35901;48.694;9.476;2023-06-19T00:04:26;6.30;;;5.80;;
50012;SDS011;35901;48.694;9.476;2023-06-19T00:06:52;6.63;;;6.13;;
50012;SDS011;35901;48.694;9.476;2023-06-19T00:09:18;6.30;;;5.80;;
50012;SDS011;35901;48.694;9.476;2023-06-19T00:11:44;7.30;;;6.70;;
50012;SDS011;35901;48.694;9.476;2023-06-19T00:14:10;7.03;;;6.43;;
50012;SDS011;35901;48.694;9.476;2023-06-19T00:16:36;6.47;;;5.97;;
50012;SDS011;35901;48.694;9.476;2023-06-19T00:19:01;6.90;;;6.00;;
50012;SDS011;35901;48.694;9.476;2023-06-19T00:21:28;7.07;;;6.37;;
50012;SDS011;35901;48.694;9.476;2023-06-19T00:23:54;6.40;;;5.90;;
50012;SDS011;35901;48.694;9.476;2023-06-19T00:26:20;6.33;;;5.83;;
50012;SDS011;35901;48.694;9.476;2023-06-19T00:28:48;6.57;;;6.07;;
50012;SDS011;35901;48.694;9.476;2023-06-19T00:31:14;6.43;;;5.83;;
50012;SDS011;35901;48.694;9.476;2023-06-19T00:33:41;6.30;;;5.80;;
50012;SDS011;35901;48.694;9.476;2023-06-19T00:36:11;6.27;;;5.77;;
50012;SDS011;35901;48.694;9.476;2023-06-19T00:38:40;6.60;;;6.10;;
50012;SDS011;35901;48.694;9.476;2023-06-19T00:41:06;5.77;;;5.27;;
50012;SDS011;35901;48.694;9.476;2023-06-19T00:43:33;6.47;;;5.90;;
50012;SDS011;35901;48.694;9.476;2023-06-19T00:45:59;7.03;;;6.43;;
50012;SDS011;35901;48.694;9.476;2023-06-19T00:48:29;7.10;;;6.40;;
50012;SDS011;35901;48.694;9.476;2023-06-19T00:50:56;6.90;;;6.40;;
50012;SDS011;35901;48.694;9.476;2023-06-19T00:53:23;6.93;;;6.40;;
50012;SDS011;35901;48.694;9.476;2023-06-19T00:55:50;6.83;;;6.33;;
50012;SDS011;35901;48.694;9.476;2023-06-19T00:58:18;6.50;;;5.90;;
50012;SDS011;35901;48.694;9.476;2023-06-19T01:00:45;6.73;;;6.23;;
50012;SDS011;35901;48.694;9.476;2023-06-19T01:03:12;6.53;;;6.03;;
50012;SDS011;35901;48.694;9.476;2023-06-19T01:05:38;6.93;;;6.33;;
50012;SDS011;35901;48.694;9.476;2023-06-19T01:08:10;7.00;;;6.50;;
50012;SDS011;35901;48.694;9.476;2023-06-19T01:10:38;7.60;;;6.90;;
50012;SDS011;35901;48.694;9.476;2023-06-19T01:13:19;6.80;;;6.20;;
50012;SDS011;35901;48.694;9.476;2023-06-19T01:15:49;7.13;;;6.43;;
50012;SDS011;35901;48.694;9.476;2023-06-19T01:18:15;6.70;;;6.20;;
50012;SDS011;35901;48.694;9.476;2023-06-19T01:20:42;6.80;;;6.20;;
50012;SDS011;35901;48.694;9.476;2023-06-19T01:23:08;6.90;;;6.30;;
50012;SDS011;35901;48.694;9.476;2023-06-19T01:25:35;7.57;;;6.97;;
50012;SDS011;35901;48.694;9.476;2023-06-19T01:28:01;7.30;;;6.70;;
50012;SDS011;35901;48.694;9.476;2023-06-19T01:30:33;7.80;;;6.47;;
50012;SDS011;35901;48.694;9.476;2023-06-19T01:35:30;6.60;;;5.90;;
50012;SDS011;35901;48.694;9.476;2023-06-19T01:37:59;6.97;;;6.33;;
50012;SDS011;35901;48.694;9.476;2023-06-19T01:40:26;7.27;;;6.67;;
50012;SDS011;35901;48.694;9.476;2023-06-19T01:42:57;6.83;;;6.30;;
50012;SDS011;35901;48.694;9.476;2023-06-19T01:45:26;6.90;;;6.30;;
50012;SDS011;35901;48.694;9.476;2023-06-19T01:47:53;6.50;;;5.90;;
50012;SDS011;35901;48.694;9.476;2023-06-19T01:50:19;6.57;;;6.07;;
50012;SDS011;35901;48.694;9.476;2023-06-19T01:52:46;6.90;;;6.30;;
50012;SDS011;35901;48.694;9.476;2023-06-19T01:55:12;6.37;;;5.87;;
50012;SDS011;35901;48.694;9.476;2023-06-19T01:57:39;6.63;;;6.03;;
50012;SDS011;35901;48.694;9.476;2023-06-19T02:00:05;6.93;;;6.40;;
50012;SDS011;35901;48.694;9.476;2023-06-19T02:02:39;7.50;;;6.90;;
50012;SDS011;35901;48.694;9.476;2023-06-19T02:05:04;6.63;;;6.13;;
50012;SDS011;35901;48.694;9.476;2023-06-19T02:07:30;7.47;;;6.87;;
50012;SDS011;35901;48.694;9.476;2023-06-19T02:09:56;7.50;;;6.80;;
50012;SDS011;35901;48.694;9.476;2023-06-19T02:12:22;7.40;;;6.80;;
50012;SDS011;35901;48.694;9.476;2023-06-19T02:14:48;7.00;;;6.47;;
50012;SDS011;35901;48.694;9.476;2023-06-19T02:17:13;7.23;;;6.63;;
50012;SDS011;35901;48.694;9.476;2023-06-19T02:19:39;7.03;;;6.50;;
50012;SDS011;35901;48.694;9.476;2023-06-19T02:22:05;7.40;;;6.73;;
50012;SDS011;35901;48.694;9.476;2023-06-19T02:24:31;6.90;;;6.30;;
50012;SDS011;35901;48.694;9.476;2023-06-19T02:26:57;6.97;;;6.33;;
50012;SDS011;35901;48.694;9.476;2023-06-19T02:29:23;6.77;;;6.17;;
50012;SDS011;35901;48.694;9.476;2023-06-19T02:31:50;6.97;;;6.37;;
50012;SDS011;35901;48.694;9.476;2023-06-19T02:34:15;6.50;;;6.00;;
50012;SDS011;35901;48.694;9.476;2023-06-19T02:36:42;6.50;;;6.00;;
50012;SDS011;35901;48.694;9.476;2023-06-19T02:39:07;6.70;;;6.20;;
50012;SDS011;35901;48.694;9.476;2023-06-19T02:41:34;6.20;;;5.80;;
50012;SDS011;35901;48.694;9.476;2023-06-19T02:44:02;6.47;;;5.97;;
50012;SDS011;35901;48.694;9.476;2023-06-19T02:46:28;6.33;;;5.80;;
50012;SDS011;35901;48.694;9.476;2023-06-19T02:48:53;6.43;;;5.93;;
50012;SDS011;35901;48.694;9.476;2023-06-19T02:51:21;5.90;;;5.40;;
50012;SDS011;35901;48.694;9.476;2023-06-19T02:53:46;5.90;;;5.50;;
50012;SDS011;35901;48.694;9.476;2023-06-19T02:56:12;6.13;;;5.63;;
50012;SDS011;35901;48.694;9.476;2023-06-19T02:58:38;6.00;;;5.60;;
50012;SDS011;35901;48.694;9.476;2023-06-19T03:01:04;6.17;;;5.67;;
50012;SDS011;35901;48.694;9.476;2023-06-19T03:03:32;6.30;;;5.73;;
50012;SDS011;35901;48.694;9.476;2023-06-19T03:06:03;5.87;;;5.37;;
50012;SDS011;35901;48.694;9.476;2023-06-19T03:08:30;6.50;;;5.93;;
50012;SDS011;35901;48.694;9.476;2023-06-19T03:10:55;6.00;;;5.50;;
50012;SDS011;35901;48.694;9.476;2023-06-19T03:13:21;6.90;;;6.30;;
50012;SDS011;35901;48.694;9.476;2023-06-19T03:15:46;5.83;;;5.33;;
50012;SDS011;35901;48.694;9.476;2023-06-19T03:18:12;6.10;;;5.60;;
50012;SDS011;35901;48.694;9.476;2023-06-19T03:20:38;6.40;;;5.50;;
50012;SDS011;35901;48.694;9.476;2023-06-19T03:23:04;6.87;;;6.27;;
50012;SDS011;35901;48.694;9.476;2023-06-19T03:25:31;5.70;;;5.20;;
50012;SDS011;35901;48.694;9.476;2023-06-19T03:28:01;6.10;;;5.60;;
50012;SDS011;35901;48.694;9.476;2023-06-19T03:30:28;7.77;;;5.63;;
50012;SDS011;35901;48.694;9.476;2023-06-19T03:32:54;5.77;;;5.30;;
50012;SDS011;35901;48.694;9.476;2023-06-19T03:35:35;5.83;;;5.30;;
50012;SDS011;35901;48.694;9.476;2023-06-19T03:38:01;5.87;;;5.40;;
50012;SDS011;35901;48.694;9.476;2023-06-19T03:40:29;5.90;;;5.30;;
50012;SDS011;35901;48.694;9.476;2023-06-19T03:42:54;5.53;;;5.10;;
50012;SDS011;35901;48.694;9.476;2023-06-19T03:45:21;5.30;;;4.80;;
50012;SDS011;35901;48.694;9.476;2023-06-19T03:47:47;6.00;;;5.20;;
50012;SDS011;35901;48.694;9.476;2023-06-19T03:50:13;5.53;;;5.13;;
50012;SDS011;35901;48.694;9.476;2023-06-19T03:52:38;5.37;;;4.80;;
50012;SDS011;35901;48.694;9.476;2023-06-19T03:55:04;5.27;;;4.83;;
50012;SDS011;35901;48.694;9.476;2023-06-19T03:57:30;5.20;;;4.90;;
50012;SDS011;35901;48.694;9.476;2023-06-19T03:59:56;5.47;;;5.00;;
50012;SDS011;35901;48.694;9.476;2023-06-19T04:02:22;5.57;;;5.17;;
50012;SDS011;35901;48.694;9.476;2023-06-19T04:04:48;5.20;;;4.80;;
50012;SDS011;35901;48.694;9.476;2023-06-19T04:07:14;4.90;;;4.50;;
50012;SDS011;35901;48.694;9.476;2023-06-19T04:09:40;5.13;;;4.73;;
50012;SDS011;35901;48.694;9.476;2023-06-19T04:12:06;5.63;;;5.00;;
50012;SDS011;35901;48.694;9.476;2023-06-19T04:14:32;5.53;;;5.00;;
50012;SDS011;35901;48.694;9.476;2023-06-19T04:16:58;5.57;;;5.07;;
50012;SDS011;35901;48.694;9.476;2023-06-19T04:19:25;5.27;;;4.87;;
50012;SDS011;35901;48.694;9.476;2023-06-19T04:21:51;5.53;;;4.77;;
50012;SDS011;35901;48.694;9.476;2023-06-19T04:24:17;5.20;;;4.70;;
50012;SDS011;35901;48.694;9.476;2023-06-19T04:26:42;5.47;;;5.03;;
50012;SDS011;35901;48.694;9.476;2023-06-19T04:29:08;5.80;;;5.30;;
50012;SDS011;35901;48.694;9.476;2023-06-19T04:31:41;5.23;;;4.83;;
50012;SDS011;35901;48.694;9.476;2023-06-19T04:34:20;5.67;;;5.23;;
50012;SDS011;35901;48.694;9.476;2023-06-19T04:36:49;5.27;;;4.87;;
50012;SDS011;35901;48.694;9.476;2023-06-19T04:39:15;6.30;;;5.70;;
50012;SDS011;35901;48.694;9.476;2023-06-19T04:41:43;6.20;;;5.70;;
50012;SDS011;35901;48.694;9.476;2023-06-19T04:44:09;5.37;;;4.97;;
50012;SDS011;35901;48.694;9.476;2023-06-19T04:46:38;5.57;;;5.17;;
50012;SDS011;35901;48.694;9.476;2023-06-19T04:49:06;5.23;;;4.83;;
50012;SDS011;35901;48.694;9.476;2023-06-19T04:51:31;5.47;;;5.07;;
50012;SDS011;35901;48.694;9.476;2023-06-19T04:54:01;4.73;;;4.43;;
50012;SDS011;35901;48.694;9.476;2023-06-19T04:56:27;5.23;;;4.80;;
50012;SDS011;35901;48.694;9.476;2023-06-19T04:58:53;4.80;;;4.50;;
50012;SDS011;35901;48.694;9.476;2023-06-19T05:01:21;4.27;;;3.97;;
50012;SDS011;35901;48.694;9.476;2023-06-19T05:03:52;4.73;;;4.37;;
50012;SDS011;35901;48.694;9.476;2023-06-19T05:06:19;4.30;;;4.00;;
50012;SDS011;35901;48.694;9.476;2023-06-19T05:08:45;4.50;;;4.10;;
50012;SDS011;35901;48.694;9.476;2023-06-19T05:11:11;4.40;;;4.10;;
50012;SDS011;35901;48.694;9.476;2023-06-19T05:13:36;3.93;;;3.70;;
50012;SDS011;35901;48.694;9.476;2023-06-19T05:16:02;3.93;;;3.63;;
50012;SDS011;35901;48.694;9.476;2023-06-19T05:18:28;3.97;;;3.67;;
50012;SDS011;35901;48.694;9.476;2023-06-19T05:20:53;3.97;;;3.63;;
50012;SDS011;35901;48.694;9.476;2023-06-19T05:23:19;3.50;;;3.30;;
50012;SDS011;35901;48.694;9.476;2023-06-19T05:25:45;4.90;;;3.77;;
50012;SDS011;35901;48.694;9.476;2023-06-19T05:28:10;3.80;;;3.50;;
50012;SDS011;35901;48.694;9.476;2023-06-19T05:30:36;3.53;;;3.33;;
50012;SDS011;35901;48.694;9.476;2023-06-19T05:33:02;4.40;;;4.00;;
50012;SDS011;35901;48.694;9.476;2023-06-19T05:35:27;4.03;;;3.73;;
50012;SDS011;35901;48.694;9.476;2023-06-19T05:37:53;4.10;;;3.70;;
50012;SDS011;35901;48.694;9.476;2023-06-19T05:40:18;4.10;;;3.80;;
50012;SDS011;35901;48.694;9.476;2023-06-19T05:42:44;4.10;;;3.80;;
50012;SDS011;35901;48.694;9.476;2023-06-19T05:45:10;4.13;;;3.77;;
50012;SDS011;35901;48.694;9.476;2023-06-19T05:47:36;4.07;;;3.77;;
50012;SDS011;35901;48.694;9.476;2023-06-19T05:50:02;3.73;;;3.43;;
50012;SDS011;35901;48.694;9.476;2023-06-19T05:52:28;4.07;;;3.77;;
50012;SDS011;35901;48.694;9.476;2023-06-19T05:54:53;4.00;;;3.70;;
50012;SDS011;35901;48.694;9.476;2023-06-19T05:57:19;3.67;;;3.37;;
50012;SDS011;35901;48.694;9.476;2023-06-19T05:59:48;3.63;;;3.33;;
50012;SDS011;35901;48.694;9.476;2023-06-19T06:02:14;3.60;;;3.30;;
50012;SDS011;35901;48.694;9.476;2023-06-19T06:04:40;3.50;;;3.30;;
50012;SDS011;35901;48.694;9.476;2023-06-19T06:07:06;3.50;;;3.20;;
50012;SDS011;35901;48.694;9.476;2023-06-19T06:09:31;4.07;;;3.70;;
50012;SDS011;35901;48.694;9.476;2023-06-19T06:11:58;4.00;;;3.70;;
50012;SDS011;35901;48.694;9.476;2023-06-19T06:14:24;3.67;;;3.40;;
50012;SDS011;35901;48.694;9.476;2023-06-19T06:16:50;3.40;;;3.20;;
50012;SDS011;35901;48.694;9.476;2023-06-19T06:19:16;3.43;;;3.13;;
50012;SDS011;35901;48.694;9.476;2023-06-19T06:21:41;3.20;;;3.00;;
50012;SDS011;35901;48.694;9.476;2023-06-19T06:24:07;3.50;;;3.20;;
50012;SDS011;35901;48.694;9.476;2023-06-19T06:26:32;3.20;;;3.00;;
50012;SDS011;35901;48.694;9.476;2023-06-19T06:28:58;3.47;;;3.27;;
50012;SDS011;35901;48.694;9.476;2023-06-19T06:31:24;2.90;;;2.70;;
50012;SDS011;35901;48.694;9.476;2023-06-19T06:33:50;3.20;;;2.90;;
50012;SDS011;35901;48.694;9.476;2023-06-19T06:36:15;3.10;;;2.90;;
50012;SDS011;35901;48.694;9.476;2023-06-19T06:38:41;3.63;;;2.73;;
50012;SDS011;35901;48.694;9.476;2023-06-19T06:41:07;3.80;;;2.67;;
50012;SDS011;35901;48.694;9.476;2023-06-19T06:43:33;3.00;;;2.80;;
50012;SDS011;35901;48.694;9.476;2023-06-19T06:45:59;4.17;;;2.97;;
50012;SDS011;35901;48.694;9.476;2023-06-19T06:48:24;2.93;;;2.70;;
50012;SDS011;35901;48.694;9.476;2023-06-19T06:50:50;4.30;;;2.90;;
50012;SDS011;35901;48.694;9.476;2023-06-19T06:53:24;3.00;;;2.80;;
50012;SDS011;35901;48.694;9.476;2023-06-19T06:55:50;3.13;;;2.83;;
50012;SDS011;35901;48.694;9.476;2023-06-19T06:58:16;3.43;;;3.23;;
50012;SDS011;35901;48.694;9.476;2023-06-19T07:00:43;2.93;;;2.73;;
50012;SDS011;35901;48.694;9.476;2023-06-19T07:03:09;2.87;;;2.67;;
50012;SDS011;35901;48.694;9.476;2023-06-19T07:05:35;3.10;;;2.73;;
50012;SDS011;35901;48.694;9.476;2023-06-19T07:08:01;2.93;;;2.73;;
50012;SDS011;35901;48.694;9.476;2023-06-19T07:10:27;3.00;;;2.67;;
50012;SDS011;35901;48.694;9.476;2023-06-19T07:12:52;2.90;;;2.70;;
50012;SDS011;35901;48.694;9.476;2023-06-19T07:15:18;8.63;;;3.00;;
50012;SDS011;35901;48.694;9.476;2023-06-19T07:17:44;5.37;;;2.90;;
50012;SDS011;35901;48.694;9.476;2023-06-19T07:20:10;2.90;;;2.70;;
50012;SDS011;35901;48.694;9.476;2023-06-19T07:22:36;3.13;;;2.83;;
50012;SDS011;35901;48.694;9.476;2023-06-19T07:25:02;3.13;;;2.92;;
50012;SDS011;35901;48.694;9.476;2023-06-19T07:27:29;3.17;;;2.97;;
50012;SDS011;35901;48.694;9.476;2023-06-19T07:29:54;3.00;;;2.80;;
50012;SDS011;35901;48.694;9.476;2023-06-19T07:32:20;3.00;;;2.70;;
50012;SDS011;35901;48.694;9.476;2023-06-19T07:34:46;3.00;;;2.80;;
50012;SDS011;35901;48.694;9.476;2023-06-19T07:37:11;2.90;;;2.73;;
50012;SDS011;35901;48.694;9.476;2023-06-19T07:39:51;3.10;;;2.90;;
50012;SDS011;35901;48.694;9.476;2023-06-19T07:42:18;2.73;;;2.57;;
50012;SDS011;35901;48.694;9.476;2023-06-19T07:44:44;2.53;;;2.43;;
50012;SDS011;35901;48.694;9.476;2023-06-19T07:47:10;3.73;;;3.03;;
50012;SDS011;35901;48.694;9.476;2023-06-19T07:49:37;2.97;;;2.77;;
50012;SDS011;35901;48.694;9.476;2023-06-19T07:52:03;2.67;;;2.47;;
50012;SDS011;35901;48.694;9.476;2023-06-19T07:54:29;2.60;;;2.40;;
50012;SDS011;35901;48.694;9.476;2023-06-19T07:56:55;2.65;;;2.45;;
50012;SDS011;35901;48.694;9.476;2023-06-19T07:59:21;2.33;;;2.22;;
50012;SDS011;35901;48.694;9.476;2023-06-19T08:01:47;2.30;;;2.10;;
50012;SDS011;35901;48.694;9.476;2023-06-19T08:04:13;2.30;;;2.20;;
50012;SDS011;35901;48.694;9.476;2023-06-19T08:06:39;2.40;;;2.30;;
50012;SDS011;35901;48.694;9.476;2023-06-19T08:09:05;2.55;;;2.45;;
50012;SDS011;35901;48.694;9.476;2023-06-19T08:11:30;2.80;;;2.60;;
50012;SDS011;35901;48.694;9.476;2023-06-19T08:13:56;3.20;;;2.53;;
50012;SDS011;35901;48.694;9.476;2023-06-19T08:16:22;2.58;;;2.40;;
50012;SDS011;35901;48.694;9.476;2023-06-19T08:18:49;2.40;;;2.25;;
50012;SDS011;35901;48.694;9.476;2023-06-19T08:21:15;2.50;;;2.30;;
50012;SDS011;35901;48.694;9.476;2023-06-19T08:23:40;2.43;;;2.33;;
50012;SDS011;35901;48.694;9.476;2023-06-19T08:26:08;2.80;;;2.60;;
50012;SDS011;35901;48.694;9.476;2023-06-19T08:28:34;2.63;;;2.43;;
50012;SDS011;35901;48.694;9.476;2023-06-19T08:31:00;2.80;;;2.60;;
50012;SDS011;35901;48.694;9.476;2023-06-19T08:33:26;2.30;;;2.20;;
50012;SDS011;35901;48.694;9.476;2023-06-19T08:35:51;2.70;;;2.50;;
50012;SDS011;35901;48.694;9.476;2023-06-19T08:38:18;2.80;;;2.60;;
50012;SDS011;35901;48.694;9.476;2023-06-19T08:40:44;2.90;;;2.73;;
50012;SDS011;35901;48.694;9.476;2023-06-19T08:43:10;2.60;;;2.37;;
50012;SDS011;35901;48.694;9.476;2023-06-19T08:45:36;2.70;;;2.50;;
50012;SDS011;35901;48.694;9.476;2023-06-19T08:48:02;3.00;;;2.80;;
50012;SDS011;35901;48.694;9.476;2023-06-19T08:50:38;2.70;;;2.60;;
50012;SDS011;35901;48.694;9.476;2023-06-19T08:53:04;2.63;;;2.42;;
50012;SDS011;35901;48.694;9.476;2023-06-19T08:55:29;2.53;;;2.38;;
50012;SDS011;35901;48.694;9.476;2023-06-19T08:57:55;2.15;;;2.05;;
50012;SDS011;35901;48.694;9.476;2023-06-19T09:00:24;2.25;;;2.13;;
50012;SDS011;35901;48.694;9.476;2023-06-19T09:02:52;2.10;;;2.00;;
50012;SDS011;35901;48.694;9.476;2023-06-19T09:05:23;2.00;;;1.90;;
50012;SDS011;35901;48.694;9.476;2023-06-19T09:07:54;2.13;;;2.03;;
50012;SDS011;35901;48.694;9.476;2023-06-19T09:10:21;2.55;;;2.28;;
50012;SDS011;35901;48.694;9.476;2023-06-19T09:12:58;2.50;;;2.30;;
50012;SDS011;35901;48.694;9.476;2023-06-19T09:15:29;2.20;;;2.10;;
50012;SDS011;35901;48.694;9.476;2023-06-19T09:18:04;2.38;;;2.20;;
50012;SDS011;35901;48.694;9.476;2023-06-19T09:20:37;2.35;;;2.20;;
50012;SDS011;35901;48.694;9.476;2023-06-19T09:23:09;1.98;;;1.88;;
50012;SDS011;35901;48.694;9.476;2023-06-19T09:25:48;2.20;;;2.10;;
50012;SDS011;35901;48.694;9.476;2023-06-19T09:28:18;2.42;;;2.25;;
50012;SDS011;35901;48.694;9.476;2023-06-19T09:30:58;2.50;;;2.30;;
50012;SDS011;35901;48.694;9.476;2023-06-19T09:33:29;2.42;;;2.33;;
50012;SDS011;35901;48.694;9.476;2023-06-19T09:35:56;2.47;;;2.28;;
50012;SDS011;35901;48.694;9.476;2023-06-19T09:38:30;2.28;;;2.10;;
50012;SDS011;35901;48.694;9.476;2023-06-19T09:40:59;2.08;;;1.98;;
50012;SDS011;35901;48.694;9.476;2023-06-19T09:43:36;2.33;;;2.10;;
50012;SDS011;35901;48.694;9.476;2023-06-19T09:46:04;2.60;;;2.50;;
50012;SDS011;35901;48.694;9.476;2023-06-19T09:48:31;2.50;;;2.30;;
50012;SDS011;35901;48.694;9.476;2023-06-19T09:51:01;2.33;;;2.22;;
50012;SDS011;35901;48.694;9.476;2023-06-19T09:53:51;2.50;;;2.30;;
50012;SDS011;35901;48.694;9.476;2023-06-19T09:56:17;2.90;;;2.70;;
50012;SDS011;35901;48.694;9.476;2023-06-19T09:58:46;3.85;;;2.67;;
50012;SDS011;35901;48.694;9.476;2023-06-19T10:01:14;2.33;;;2.22;;
50012;SDS011;35901;48.694;9.476;2023-06-19T10:03:43;2.80;;;2.60;;
50012;SDS011;35901;48.694;9.476;2023-06-19T10:06:13;2.53;;;2.33;;
50012;SDS011;35901;48.694;9.476;2023-06-19T10:08:43;2.60;;;2.50;;
50012;SDS011;35901;48.694;9.476;2023-06-19T10:11:10;2.70;;;2.50;;
50012;SDS011;35901;48.694;9.476;2023-06-19T10:13:37;2.17;;;2.08;;
50012;SDS011;35901;48.694;9.476;2023-06-19T10:16:05;2.70;;;2.50;;
50012;SDS011;35901;48.694;9.476;2023-06-19T10:18:44;2.50;;;2.40;;
50012;SDS011;35901;48.694;9.476;2023-06-19T10:21:18;2.78;;;2.67;;
50012;SDS011;35901;48.694;9.476;2023-06-19T10:23:54;2.78;;;2.67;;
50012;SDS011;35901;48.694;9.476;2023-06-19T10:26:28;2.90;;;2.70;;
50012;SDS011;35901;48.694;9.476;2023-06-19T10:29:13;2.60;;;2.50;;
50012;SDS011;35901;48.694;9.476;2023-06-19T10:31:40;2.88;;;2.60;;
50012;SDS011;35901;48.694;9.476;2023-06-19T10:34:05;2.78;;;2.58;;
50012;SDS011;35901;48.694;9.476;2023-06-19T10:36:31;2.80;;;2.60;;
50012;SDS011;35901;48.694;9.476;2023-06-19T10:38:57;2.88;;;2.67;;
50012;SDS011;35901;48.694;9.476;2023-06-19T10:41:23;2.53;;;2.33;;
50012;SDS011;35901;48.694;9.476;2023-06-19T10:43:59;3.40;;;2.67;;
50012;SDS011;35901;48.694;9.476;2023-06-19T10:46:29;2.75;;;2.53;;
50012;SDS011;35901;48.694;9.476;2023-06-19T10:48:57;2.28;;;2.17;;
50012;SDS011;35901;48.694;9.476;2023-06-19T10:51:29;2.90;;;2.70;;
50012;SDS011;35901;48.694;9.476;2023-06-19T10:53:55;2.50;;;2.40;;
50012;SDS011;35901;48.694;9.476;2023-06-19T10:56:23;2.55;;;2.45;;
50012;SDS011;35901;48.694;9.476;2023-06-19T11:01:35;2.30;;;2.20;;
50012;SDS011;35901;48.694;9.476;2023-06-19T11:04:06;2.50;;;2.17;;
50012;SDS011;35901;48.694;9.476;2023-06-19T11:06:33;2.38;;;2.28;;
50012;SDS011;35901;48.694;9.476;2023-06-19T11:08:59;2.10;;;2.00;;
50012;SDS011;35901;48.694;9.476;2023-06-19T11:11:38;2.33;;;2.20;;
50012;SDS011;35901;48.694;9.476;2023-06-19T11:14:09;2.45;;;2.25;;
50012;SDS011;35901;48.694;9.476;2023-06-19T11:16:37;2.13;;;2.03;;
50012;SDS011;35901;48.694;9.476;2023-06-19T11:19:06;2.10;;;2.00;;
50012;SDS011;35901;48.694;9.476;2023-06-19T11:21:34;1.98;;;1.88;;
50012;SDS011;35901;48.694;9.476;2023-06-19T11:24:05;1.75;;;1.67;;
50012;SDS011;35901;48.694;9.476;2023-06-19T11:26:45;2.00;;;1.90;;
50012;SDS011;35901;48.694;9.476;2023-06-19T11:29:25;2.25;;;2.05;;
50012;SDS011;35901;48.694;9.476;2023-06-19T11:32:04;2.10;;;2.00;;
50012;SDS011;35901;48.694;9.476;2023-06-19T11:34:32;1.90;;;1.80;;
50012;SDS011;35901;48.694;9.476;2023-06-19T11:36:59;1.80;;;1.70;;
50012;SDS011;35901;48.694;9.476;2023-06-19T11:39:25;1.98;;;1.88;;
50012;SDS011;35901;48.694;9.476;2023-06-19T11:41:50;2.13;;;1.92;;
50012;SDS011;35901;48.694;9.476;2023-06-19T11:44:16;1.98;;;1.88;;
50012;SDS011;35901;48.694;9.476;2023-06-19T11:46:42;2.08;;;1.98;;
50012;SDS011;35901;48.694;9.476;2023-06-19T11:49:15;1.90;;;1.80;;
50012;SDS011;35901;48.694;9.476;2023-06-19T11:51:43;1.90;;;1.80;;
50012;SDS011;35901;48.694;9.476;2023-06-19T11:54:09;2.00;;;1.90;;
50012;SDS011;35901;48.694;9.476;2023-06-19T11:56:37;2.50;;;2.05;;
50012;SDS011;35901;48.694;9.476;2023-06-19T11:59:04;2.00;;;1.90;;
50012;SDS011;35901;48.694;9.476;2023-06-19T12:01:35;2.00;;;1.90;;
50012;SDS011;35901;48.694;9.476;2023-06-19T12:04:02;2.20;;;1.98;;
50012;SDS011;35901;48.694;9.476;2023-06-19T12:06:29;2.10;;;1.90;;
50012;SDS011;35901;48.694;9.476;2023-06-19T12:08:55;2.20;;;2.10;;
50012;SDS011;35901;48.694;9.476;2023-06-19T12:11:21;2.20;;;2.10;;
50012;SDS011;35901;48.694;9.476;2023-06-19T12:13:47;3.15;;;2.10;;
50012;SDS011;35901;48.694;9.476;2023-06-19T12:16:14;2.10;;;2.00;;
50012;SDS011;35901;48.694;9.476;2023-06-19T12:18:40;2.28;;;2.15;;
50012;SDS011;35901;48.694;9.476;2023-06-19T12:21:06;1.92;;;1.83;;
50012;SDS011;35901;48.694;9.476;2023-06-19T12:23:32;2.15;;;1.95;;
50012;SDS011;35901;48.694;9.476;2023-06-19T12:25:59;2.38;;;2.20;;
50012;SDS011;35901;48.694;9.476;2023-06-19T12:28:25;2.60;;;2.40;;
50012;SDS011;35901;48.694;9.476;2023-06-19T12:30:53;2.17;;;2.00;;
50012;SDS011;35901;48.694;9.476;2023-06-19T12:33:21;2.65;;;2.17;;
50012;SDS011;35901;48.694;9.476;2023-06-19T12:35:47;2.22;;;2.08;;
50012;SDS011;35901;48.694;9.476;2023-06-19T12:38:14;2.35;;;2.25;;
50012;SDS011;35901;48.694;9.476;2023-06-19T12:40:40;2.38;;;2.28;;
50012;SDS011;35901;48.694;9.476;2023-06-19T12:43:06;2.10;;;2.00;;
50012;SDS011;35901;48.694;9.476;2023-06-19T12:45:33;2.28;;;2.17;;
50012;SDS011;35901;48.694;9.476;2023-06-19T12:47:59;2.38;;;2.20;;
50012;SDS011;35901;48.694;9.476;2023-06-19T12:50:25;2.38;;;2.28;;
50012;SDS011;35901;48.694;9.476;2023-06-19T12:52:51;2.30;;;2.20;;
50012;SDS011;35901;48.694;9.476;2023-06-19T12:55:17;2.20;;;2.10;;
50012;SDS011;35901;48.694;9.476;2023-06-19T12:57:44;2.33;;;2.15;;
50012;SDS011;35901;48.694;9.476;2023-06-19T13:00:10;2.45;;;2.35;;
50012;SDS011;35901;48.694;9.476;2023-06-19T13:02:40;2.33;;;2.22;;
50012;SDS011;35901;48.694;9.476;2023-06-19T13:05:08;2.30;;;2.20;;
50012;SDS011;35901;48.694;9.476;2023-06-19T13:07:35;2.63;;;2.40;;
50012;SDS011;35901;48.694;9.476;2023-06-19T13:10:01;2.20;;;2.10;;
50012;SDS011;35901;48.694;9.476;2023-06-19T13:12:26;2.50;;;2.30;;
50012;SDS011;35901;48.694;9.476;2023-06-19T13:14:52;2.40;;;2.30;;
50012;SDS011;35901;48.694;9.476;2023-06-19T13:17:18;2.50;;;2.30;;
50012;SDS011;35901;48.694;9.476;2023-06-19T13:19:44;2.63;;;2.42;;
50012;SDS011;35901;48.694;9.476;2023-06-19T13:22:09;3.03;;;2.67;;
50012;SDS011;35901;48.694;9.476;2023-06-19T13:24:35;5.70;;;2.50;;
50012;SDS011;35901;48.694;9.476;2023-06-19T13:27:01;2.88;;;2.50;;
50012;SDS011;35901;48.694;9.476;2023-06-19T13:29:27;2.30;;;2.20;;
50012;SDS011;35901;48.694;9.476;2023-06-19T13:31:53;4.60;;;2.50;;
50012;SDS011;35901;48.694;9.476;2023-06-19T13:34:18;2.47;;;2.28;;
50012;SDS011;35901;48.694;9.476;2023-06-19T13:36:46;2.42;;;2.10;;
50012;SDS011;35901;48.694;9.476;2023-06-19T13:39:12;2.50;;;2.40;;
50012;SDS011;35901;48.694;9.476;2023-06-19T13:41:38;3.55;;;2.45;;
50012;SDS011;35901;48.694;9.476;2023-06-19T13:44:04;2.50;;;2.30;;
50012;SDS011;35901;48.694;9.476;2023-06-19T13:46:29;2.20;;;2.10;;
50012;SDS011;35901;48.694;9.476;2023-06-19T13:48:56;2.00;;;1.90;;
50012;SDS011;35901;48.694;9.476;2023-06-19T13:51:22;2.30;;;2.10;;
50012;SDS011;35901;48.694;9.476;2023-06-19T13:53:49;2.90;;;2.70;;
50012;SDS011;35901;48.694;9.476;2023-06-19T13:56:15;4.43;;;2.45;;
50012;SDS011;35901;48.694;9.476;2023-06-19T13:58:41;2.80;;;2.60;;
50012;SDS011;35901;48.694;9.476;2023-06-19T14:01:07;2.72;;;2.53;;
50012;SDS011;35901;48.694;9.476;2023-06-19T14:03:34;2.80;;;2.42;;
50012;SDS011;35901;48.694;9.476;2023-06-19T14:06:01;3.00;;;2.50;;
50012;SDS011;35901;48.694;9.476;2023-06-19T14:08:27;6.10;;;2.90;;
50012;SDS011;35901;48.694;9.476;2023-06-19T14:10:54;2.75;;;2.50;;
50012;SDS011;35901;48.694;9.476;2023-06-19T14:13:19;2.22;;;2.13;;
50012;SDS011;35901;48.694;9.476;2023-06-19T14:15:45;2.53;;;2.38;;
50012;SDS011;35901;48.694;9.476;2023-06-19T14:18:11;2.70;;;2.50;;
50012;SDS011;35901;48.694;9.476;2023-06-19T14:20:36;2.60;;;2.50;;
50012;SDS011;35901;48.694;9.476;2023-06-19T14:23:03;3.58;;;2.50;;
50012;SDS011;35901;48.694;9.476;2023-06-19T14:25:29;2.53;;;2.33;;
50012;SDS011;35901;48.694;9.476;2023-06-19T14:27:54;2.70;;;2.50;;
50012;SDS011;35901;48.694;9.476;2023-06-19T14:30:20;2.42;;;2.33;;
50012;SDS011;35901;48.694;9.476;2023-06-19T14:32:47;2.53;;;2.38;;
50012;SDS011;35901;48.694;9.476;2023-06-19T14:35:12;2.53;;;2.33;;
50012;SDS011;35901;48.694;9.476;2023-06-19T14:37:38;2.90;;;2.70;;
50012;SDS011;35901;48.694;9.476;2023-06-19T14:40:04;2.50;;;2.35;;
50012;SDS011;35901;48.694;9.476;2023-06-19T14:42:30;2.85;;;2.63;;
50012;SDS011;35901;48.694;9.476;2023-06-19T14:44:55;2.75;;;2.55;;
50012;SDS011;35901;48.694;9.476;2023-06-19T14:47:21;2.45;;;2.35;;
50012;SDS011;35901;48.694;9.476;2023-06-19T14:49:47;2.42;;;2.33;;
50012;SDS011;35901;48.694;9.476;2023-06-19T14:52:13;2.75;;;2.60;;
50012;SDS011;35901;48.694;9.476;2023-06-19T14:54:40;2.90;;;2.65;;